Terminal Aerodrome Forecast
Issued by NWS

Home | Current Version | Previous Version | Text Only | Print | Product List | Glossary On
Versions: 1 2 3 4 5 6 7 8 9 10 11 12 13 14 15 16 17 18 19 20
910
FTUS43 KAPX 261120
TAFTVC
TAF
KTVC 261120Z 2612/2712 19010KT P6SM -TSRA SCT040CB OVC070
      WS020/22030KT
     FM261230 21009KT P6SM -SHRA BKN050 BKN120
     FM261400 22012G20KT P6SM VCSH BKN060 OVC130
     FM262000 23010KT P6SM VCTS OVC080CB
     FM270000 25006KT P6SM OVC060
     FM270300 00000KT P6SM BKN050=

USA.gov is the U.S. government's official web portal to all federal, state and local government web resources and services.